createdAt,value
2019-02-28T00:00:43.018Z,98121.23
2019-02-28T00:01:47.211Z,98110.46
2019-02-28T00:02:49.213Z,98105.97
2019-02-28T00:03:50.913Z,98111.67
2019-02-28T00:04:52.754Z,98102.66
2019-02-28T00:05:54.775Z,98111.17
2019-02-28T00:06:56.502Z,98111.37
2019-02-28T00:07:58.734Z,98117.30
2019-02-28T00:09:01.651Z,98121.19
2019-02-28T00:10:08.807Z,98116.88
2019-02-28T00:11:10.803Z,98122.73
2019-02-28T00:12:13.526Z,98121.59
2019-02-28T00:13:21.453Z,98123.11
2019-02-28T00:14:20.787Z,98120.14
2019-02-28T00:15:22.835Z,98123.42
2019-02-28T00:16:25.218Z,98122.62
2019-02-28T00:17:27.084Z,98112.99
2019-02-28T00:18:29.066Z,98119.77
2019-02-28T00:19:31.169Z,98116.88
2019-02-28T00:20:33.346Z,98110.03
2019-02-28T00:21:37.405Z,98107.87
2019-02-28T00:22:38.793Z,98112.70
2019-02-28T00:23:40.661Z,98106.16
2019-02-28T00:24:42.417Z,98102.16
2019-02-28T00:25:45.434Z,98098.28
2019-02-28T00:26:47.931Z,98101.44
2019-02-28T00:27:52.641Z,98098.78
2019-02-28T00:28:57.071Z,98094.29
2019-02-28T00:29:58.860Z,98094.09
2019-02-28T00:31:00.946Z,98086.11
2019-02-28T00:32:03.657Z,98079.23
2019-02-28T00:33:05.551Z,98087.55
2019-02-28T00:34:07.466Z,98084.89
2019-02-28T00:35:12.932Z,98081.50
2019-02-28T00:36:13.229Z,98080.79
2019-02-28T00:37:14.915Z,98079.98
2019-02-28T00:38:16.988Z,98081.13
2019-02-28T00:39:18.619Z,98071.80
2019-02-28T00:40:20.264Z,98075.27
2019-02-28T00:41:22.277Z,98073.94
2019-02-28T00:42:24.104Z,98073.25
2019-02-28T00:43:25.968Z,98067.70
2019-02-28T00:44:31.285Z,98058.68
2019-02-28T00:45:36.266Z,98059.70
2019-02-28T00:46:35.886Z,98060.34
2019-02-28T00:47:37.958Z,98055.33
2019-02-28T00:48:40.002Z,98051.33
2019-02-28T00:49:41.637Z,98055.02
2019-02-28T00:50:43.686Z,98052.66
2019-02-28T00:51:45.635Z,98053.69
2019-02-28T00:52:47.546Z,98050.61
2019-02-28T00:53:49.418Z,98053.27
2019-02-28T00:54:51.059Z,98051.94
2019-02-28T00:55:53.010Z,98047.94
2019-02-28T00:56:54.854Z,98048.05
2019-02-28T00:57:58.977Z,98045.58
2019-02-28T00:59:02.219Z,98040.25
2019-02-28T01:00:09.998Z,98038.73
2019-02-28T01:01:12.629Z,98031.27
2019-02-28T01:02:17.628Z,98030.44
2019-02-28T01:03:18.397Z,98022.63
2019-02-28T01:04:20.387Z,98021.41
2019-02-28T01:05:22.441Z,98026.74
2019-02-28T01:06:26.909Z,98018.45
2019-02-28T01:07:28.753Z,98021.61
2019-02-28T01:08:31.591Z,98019.28
2019-02-28T01:09:33.592Z,98009.62
2019-02-28T01:10:39.298Z,98013.00
2019-02-28T01:11:39.310Z,98009.51
2019-02-28T01:12:41.403Z,98016.09
2019-02-28T01:13:43.396Z,98013.31
2019-02-28T01:14:45.275Z,98008.09
2019-02-28T01:15:47.458Z,98014.03
2019-02-28T01:16:50.171Z,98008.41
2019-02-28T01:17:53.305Z,98007.06
2019-02-28T01:18:54.988Z,98002.35
2019-02-28T01:19:56.985Z,98007.38
2019-02-28T01:20:58.860Z,97998.85
2019-02-28T01:22:01.628Z,98000.52
2019-02-28T01:23:03.680Z,98001.74
2019-02-28T01:24:05.490Z,97996.19
2019-02-28T01:25:15.624Z,97997.02
2019-02-28T01:26:17.512Z,97995.69
2019-02-28T01:27:21.014Z,97990.36
2019-02-28T01:28:26.854Z,97994.16
2019-02-28T01:29:27.213Z,97986.97
2019-02-28T01:30:29.804Z,97989.63
2019-02-28T01:31:31.656Z,97985.64
2019-02-28T01:32:33.701Z,97984.64
2019-02-28T01:33:36.544Z,97983.31
2019-02-28T01:34:38.198Z,97977.98
2019-02-28T01:35:41.526Z,97976.95
2019-02-28T01:36:45.963Z,97978.78
2019-02-28T01:37:47.269Z,97973.34
2019-02-28T01:38:49.156Z,97971.83
2019-02-28T01:39:51.135Z,97962.50
2019-02-28T01:40:53.338Z,97959.23
2019-02-28T01:41:55.548Z,97961.66
2019-02-28T01:42:57.534Z,97958.70
2019-02-28T01:44:01.738Z,97946.70
2019-02-28T01:45:07.072Z,97949.91
2019-02-28T01:46:10.630Z,97941.08
2019-02-28T01:47:12.699Z,97944.05
2019-02-28T01:48:14.753Z,97930.42
2019-02-28T01:49:16.695Z,97928.78
2019-02-28T01:50:18.948Z,97920.48
2019-02-28T01:51:21.002Z,97919.46
2019-02-28T01:52:22.810Z,97916.80
2019-02-28T01:53:24.665Z,97919.46
2019-02-28T01:54:27.751Z,97911.36
2019-02-28T01:55:31.736Z,97913.19
2019-02-28T01:56:34.316Z,97905.09
2019-02-28T01:57:42.357Z,97913.62
2019-02-28T01:58:41.545Z,97903.16
2019-02-28T01:59:43.507Z,97906.02
2019-02-28T02:00:45.194Z,97901.72
2019-02-28T02:01:47.205Z,97903.77
2019-02-28T02:02:49.049Z,97901.11
2019-02-28T02:03:51.101Z,97899.25
2019-02-28T02:04:53.045Z,97898.95
2019-02-28T02:05:55.053Z,97896.09
2019-02-28T02:06:59.924Z,97894.45
2019-02-28T02:08:06.523Z,97896.89
2019-02-28T02:09:08.185Z,97890.23
2019-02-28T02:10:21.230Z,97882.77
2019-02-28T02:11:21.763Z,97887.80
2019-02-28T02:12:23.615Z,97887.46
2019-02-28T02:13:27.947Z,97879.17
2019-02-28T02:14:30.254Z,97878.06
2019-02-28T02:15:32.346Z,97871.48
2019-02-28T02:16:35.510Z,97869.55
2019-02-28T02:17:37.382Z,97865.55
2019-02-28T02:18:43.023Z,97865.25
2019-02-28T02:19:42.944Z,97864.22
2019-02-28T02:20:44.684Z,97862.39
2019-02-28T02:21:46.530Z,97853.86
2019-02-28T02:22:50.530Z,97846.61
2019-02-28T02:23:52.983Z,97855.20
2019-02-28T02:24:55.568Z,97851.20
2019-02-28T02:25:57.660Z,97843.94
2019-02-28T02:26:59.503Z,97843.94
2019-02-28T02:28:01.176Z,97837.89
2019-02-28T02:29:03.391Z,97840.16
2019-02-28T02:30:19.179Z,97837.78
2019-02-28T02:31:27.196Z,97844.14
2019-02-28T02:32:25.981Z,97843.34
2019-02-28T02:33:28.051Z,97841.06
2019-02-28T02:34:31.312Z,97833.50
2019-02-28T02:35:33.190Z,97837.49
2019-02-28T02:36:35.251Z,97833.80
2019-02-28T02:37:37.083Z,97829.51
2019-02-28T02:38:41.563Z,97828.97
2019-02-28T02:39:42.629Z,97825.28
2019-02-28T02:40:44.585Z,97825.81
2019-02-28T02:41:46.589Z,97817.83
2019-02-28T02:42:49.883Z,97817.83
2019-02-28T02:43:55.035Z,97815.77
2019-02-28T02:44:56.099Z,97816.07
2019-02-28T02:45:57.792Z,97815.04
2019-02-28T02:46:59.714Z,97811.68
2019-02-28T02:48:05.298Z,97812.38
2019-02-28T02:49:05.845Z,97808.72
2019-02-28T02:50:14.039Z,97804.49
2019-02-28T02:51:15.973Z,97806.16
2019-02-28T02:52:17.989Z,97797.44
2019-02-28T02:53:19.827Z,97794.97
2019-02-28T02:54:21.943Z,97792.61
2019-02-28T02:55:27.725Z,97787.39
2019-02-28T02:56:27.672Z,97786.89
2019-02-28T02:57:29.757Z,97781.87
2019-02-28T02:58:31.640Z,97778.70
2019-02-28T02:59:39.047Z,97769.38
2019-02-28T03:00:37.657Z,97771.81
2019-02-28T03:01:39.621Z,97770.81
2019-02-28T03:02:42.794Z,97772.25
2019-02-28T03:03:44.627Z,97766.59
2019-02-28T03:04:46.863Z,97765.06
2019-02-28T03:05:48.959Z,97764.03
2019-02-28T03:06:51.668Z,97760.03
2019-02-28T03:07:59.439Z,97758.70
2019-02-28T03:08:57.464Z,97750.01
2019-02-28T03:09:59.268Z,97751.64
2019-02-28T03:11:01.464Z,97751.11
2019-02-28T03:12:04.984Z,97749.28
2019-02-28T03:13:07.321Z,97748.98
2019-02-28T03:14:09.480Z,97752.87
2019-02-28T03:15:15.669Z,97747.22
2019-02-28T03:16:18.832Z,97748.34
2019-02-28T03:17:20.828Z,97744.87
2019-02-28T03:18:22.738Z,97741.19
2019-02-28T03:19:24.419Z,97736.36
2019-02-28T03:20:26.275Z,97732.36
2019-02-28T03:21:28.281Z,97735.86
2019-02-28T03:22:30.474Z,97729.50
2019-02-28T03:23:37.857Z,97726.84
2019-02-28T03:24:36.380Z,97734.53
2019-02-28T03:25:38.171Z,97726.53
2019-02-28T03:26:41.887Z,97724.97
2019-02-28T03:27:44.121Z,97722.84
2019-02-28T03:28:47.140Z,97724.77
2019-02-28T03:29:48.984Z,97728.47
2019-02-28T03:30:50.963Z,97714.31
2019-02-28T03:31:56.783Z,97720.08
2019-02-28T03:32:56.753Z,97715.05
2019-02-28T03:34:10.491Z,97713.21
2019-02-28T03:35:04.727Z,97719.34
2019-02-28T03:36:06.585Z,97711.88
2019-02-28T03:37:08.284Z,97720.17
2019-02-28T03:38:12.482Z,97720.38
2019-02-28T03:39:14.049Z,97718.55
2019-02-28T03:40:16.180Z,97719.34
2019-02-28T03:41:18.413Z,97719.05
2019-02-28T03:42:20.405Z,97719.97
2019-02-28T03:43:22.338Z,97722.54
2019-02-28T03:44:24.308Z,97715.58
2019-02-28T03:45:33.660Z,97713.71
2019-02-28T03:46:29.947Z,97711.05
2019-02-28T03:47:32.145Z,97708.09
2019-02-28T03:48:35.960Z,97701.23
2019-02-28T03:49:37.997Z,97698.97
2019-02-28T03:50:39.848Z,97691.07
2019-02-28T03:51:41.581Z,97690.04
2019-02-28T03:52:44.890Z,97686.05
2019-02-28T03:53:46.926Z,97684.95
2019-02-28T03:54:48.796Z,97685.84
2019-02-28T03:55:50.969Z,97674.05
2019-02-28T03:56:53.450Z,97679.38
2019-02-28T03:57:55.681Z,97675.92
2019-02-28T03:58:58.229Z,97670.36
2019-02-28T04:00:00.474Z,97667.69
2019-02-28T04:01:08.927Z,97665.03
2019-02-28T04:02:06.468Z,97661.86
2019-02-28T04:03:08.208Z,97663.80
2019-02-28T04:04:12.210Z,97662.47
2019-02-28T04:05:14.053Z,97652.55
2019-02-28T04:06:15.994Z,97650.47
2019-02-28T04:07:17.740Z,97652.94
2019-02-28T04:08:19.982Z,97648.14
2019-02-28T04:09:21.736Z,97641.78
2019-02-28T04:10:23.583Z,97635.32
2019-02-28T04:11:30.784Z,97635.12
2019-02-28T04:12:29.411Z,97636.45
2019-02-28T04:13:31.370Z,97632.75
2019-02-28T04:14:34.345Z,97635.41
2019-02-28T04:15:36.942Z,97629.25
2019-02-28T04:16:38.930Z,97634.59
2019-02-28T04:17:41.005Z,97637.25
2019-02-28T04:18:46.148Z,97632.25
2019-02-28T04:19:47.021Z,97629.05
2019-02-28T04:20:49.157Z,97630.38
2019-02-28T04:21:50.837Z,97629.25
2019-02-28T04:22:58.722Z,97625.05
2019-02-28T04:23:57.246Z,97629.35
2019-02-28T04:24:58.921Z,97625.35
2019-02-28T04:26:00.833Z,97622.69
2019-02-28T04:27:06.928Z,97623.31
2019-02-28T04:28:06.696Z,97621.98
2019-02-28T04:29:08.857Z,97621.98
2019-02-28T04:30:15.300Z,97620.66
2019-02-28T04:31:20.084Z,97622.28
2019-02-28T04:32:26.395Z,97617.45
2019-02-28T04:33:25.095Z,97613.76
2019-02-28T04:34:27.076Z,97610.30
2019-02-28T04:35:29.087Z,97612.12
2019-02-28T04:36:35.488Z,97612.95
2019-02-28T04:37:34.930Z,97619.09
2019-02-28T04:38:37.032Z,97615.92
2019-02-28T04:39:39.178Z,97607.33
2019-02-28T04:40:41.255Z,97612.22
2019-02-28T04:41:43.000Z,97607.92
2019-02-28T04:42:44.962Z,97607.92
2019-02-28T04:43:46.956Z,97605.56
2019-02-28T04:44:49.191Z,97602.30
2019-02-28T04:45:53.091Z,97594.91
2019-02-28T04:46:54.981Z,97591.20
2019-02-28T04:47:56.905Z,97593.57
2019-02-28T04:48:58.582Z,97587.73
2019-02-28T04:50:00.638Z,97587.20
2019-02-28T04:51:05.779Z,97577.28
2019-02-28T04:52:06.359Z,97581.58
2019-02-28T04:53:08.338Z,97573.59
2019-02-28T04:54:10.214Z,97569.89
2019-02-28T04:55:12.321Z,97566.22
2019-02-28T04:56:14.180Z,97565.09
2019-02-28T04:57:17.397Z,97563.13
2019-02-28T04:58:22.391Z,97566.62
2019-02-28T04:59:24.123Z,97563.97
2019-02-28T05:00:25.997Z,97565.00
2019-02-28T05:01:27.944Z,97560.27
2019-02-28T05:02:29.989Z,97569.89
2019-02-28T05:03:32.266Z,97566.42
2019-02-28T05:04:36.081Z,97563.76
2019-02-28T05:05:37.906Z,97565.09
2019-02-28T05:06:40.348Z,97569.89
2019-02-28T05:07:42.472Z,97568.55
2019-02-28T05:08:44.408Z,97562.72
2019-02-28T05:09:48.103Z,97561.39
2019-02-28T05:10:50.131Z,97555.77
2019-02-28T05:11:52.100Z,97558.22
2019-02-28T05:12:54.247Z,97563.22
2019-02-28T05:13:56.335Z,97560.56
2019-02-28T05:15:02.190Z,97557.59
2019-02-28T05:16:02.423Z,97556.36
2019-02-28T05:17:04.269Z,97557.69
2019-02-28T05:18:06.377Z,97551.56
2019-02-28T05:19:08.199Z,97546.44
2019-02-28T05:20:12.161Z,97541.61
2019-02-28T05:21:16.522Z,97537.32
2019-02-28T05:22:18.004Z,97535.48
2019-02-28T05:23:19.985Z,97529.63
2019-02-28T05:24:21.623Z,97537.91
2019-02-28T05:25:23.304Z,97530.45
2019-02-28T05:26:27.008Z,97528.91
2019-02-28T05:27:34.859Z,97524.30
2019-02-28T05:28:33.081Z,97527.25
2019-02-28T05:29:35.074Z,97529.13
2019-02-28T05:30:36.999Z,97521.54
2019-02-28T05:31:38.760Z,97527.49
2019-02-28T05:32:40.643Z,97528.29
2019-02-28T05:33:42.923Z,97535.25
2019-02-28T05:34:47.412Z,97527.70
2019-02-28T05:35:48.740Z,97524.50
2019-02-28T05:36:50.607Z,97522.38
2019-02-28T05:37:52.614Z,97518.38
2019-02-28T05:38:56.697Z,97515.17
2019-02-28T05:39:58.091Z,97507.72
2019-02-28T05:41:00.326Z,97505.05
2019-02-28T05:42:02.198Z,97496.02
2019-02-28T05:43:03.865Z,97497.56
2019-02-28T05:44:06.245Z,97493.86
2019-02-28T05:45:11.324Z,97480.33
2019-02-28T05:46:14.629Z,97481.08
2019-02-28T05:47:16.720Z,97476.04
2019-02-28T05:48:18.636Z,97472.34
2019-02-28T05:49:20.739Z,97479.63
2019-02-28T05:50:22.800Z,97472.96
2019-02-28T05:51:25.746Z,97473.97
2019-02-28T05:52:30.514Z,97475.83
2019-02-28T05:53:31.631Z,97477.67
2019-02-28T05:54:33.294Z,97472.34
2019-02-28T05:55:35.168Z,97472.34
2019-02-28T05:56:37.097Z,97470.20
2019-02-28T05:57:42.894Z,97474.20
2019-02-28T05:58:42.948Z,97481.66
2019-02-28T05:59:44.914Z,97472.63
2019-02-28T06:00:46.590Z,97479.63
2019-02-28T06:01:48.575Z,97469.47
2019-02-28T06:02:50.755Z,97475.83
2019-02-28T06:03:52.638Z,97472.13
2019-02-28T06:04:54.623Z,97476.42
2019-02-28T06:05:56.556Z,97470.06
2019-02-28T06:06:58.663Z,97475.39
2019-02-28T06:08:03.630Z,97472.52
2019-02-28T06:09:04.893Z,97471.19
2019-02-28T06:10:10.769Z,97472.52
2019-02-28T06:11:12.627Z,97470.89
2019-02-28T06:12:14.681Z,97467.52
2019-02-28T06:13:18.266Z,97471.00
2019-02-28T06:14:20.184Z,97470.17
2019-02-28T06:15:21.880Z,97464.84
2019-02-28T06:16:23.865Z,97468.34
2019-02-28T06:17:25.735Z,97467.81
2019-02-28T06:18:32.653Z,97463.61
2019-02-28T06:19:31.887Z,97463.10
2019-02-28T06:20:33.891Z,97459.40
2019-02-28T06:21:35.747Z,97467.39
2019-02-28T06:22:37.691Z,97459.90
2019-02-28T06:23:40.796Z,97460.44
2019-02-28T06:24:44.840Z,97463.39
2019-02-28T06:25:47.241Z,97458.89
2019-02-28T06:26:49.131Z,97455.40
2019-02-28T06:27:50.939Z,97450.58
2019-02-28T06:28:52.733Z,97446.08
2019-02-28T06:29:54.831Z,97439.70
2019-02-28T06:31:00.192Z,97446.37
2019-02-28T06:32:02.599Z,97439.41
2019-02-28T06:33:05.047Z,97433.05
2019-02-28T06:34:08.555Z,97432.33
2019-02-28T06:35:15.989Z,97426.67
2019-02-28T06:36:14.986Z,97428.34
2019-02-28T06:37:17.037Z,97431.00
2019-02-28T06:38:19.251Z,97428.84
2019-02-28T06:39:21.881Z,97435.00
2019-02-28T06:40:24.108Z,97423.30
2019-02-28T06:41:26.375Z,97429.42
2019-02-28T06:42:28.364Z,97424.72
2019-02-28T06:43:30.540Z,97426.84
2019-02-28T06:44:32.782Z,97420.19
2019-02-28T06:45:37.593Z,97414.35
2019-02-28T06:46:39.853Z,97410.35
2019-02-28T06:47:45.382Z,97410.64
2019-02-28T06:48:46.053Z,97407.98
2019-02-28T06:49:48.114Z,97406.44
2019-02-28T06:50:50.010Z,97409.10
2019-02-28T06:51:52.028Z,97408.81
2019-02-28T06:52:56.454Z,97400.28
2019-02-28T06:53:57.898Z,97401.41
2019-02-28T06:54:59.643Z,97402.52
2019-02-28T06:56:01.728Z,97405.69
2019-02-28T06:57:03.743Z,97400.66
2019-02-28T06:58:06.409Z,97404.98
2019-02-28T06:59:08.518Z,97402.81
2019-02-28T07:00:14.221Z,97397.78
2019-02-28T07:01:16.263Z,97392.66
2019-02-28T07:02:18.228Z,97392.74
2019-02-28T07:03:20.343Z,97385.58
2019-02-28T07:04:22.320Z,97386.08
2019-02-28T07:05:25.967Z,97386.08
2019-02-28T07:06:27.993Z,97389.87
2019-02-28T07:07:29.841Z,97388.33
2019-02-28T07:08:31.809Z,97377.87
2019-02-28T07:09:36.378Z,97375.00
2019-02-28T07:10:37.495Z,97374.16
2019-02-28T07:11:39.350Z,97375.79
2019-02-28T07:12:41.391Z,97374.25
2019-02-28T07:13:43.276Z,97375.28
2019-02-28T07:14:49.212Z,97372.12
2019-02-28T07:15:49.099Z,97372.91
2019-02-28T07:16:51.196Z,97373.53
2019-02-28T07:17:53.043Z,97371.37
2019-02-28T07:18:55.038Z,97368.20
2019-02-28T07:20:01.319Z,97365.53
2019-02-28T07:21:00.989Z,97365.29
2019-02-28T07:22:03.017Z,97358.33
2019-02-28T07:23:05.046Z,97353.83
2019-02-28T07:24:06.946Z,97359.45
2019-02-28T07:25:12.782Z,97364.28
2019-02-28T07:26:14.320Z,97356.28
2019-02-28T07:27:16.471Z,97362.20
2019-02-28T07:28:18.698Z,97359.24
2019-02-28T07:29:20.591Z,97356.50
2019-02-28T07:30:22.570Z,97349.08
2019-02-28T07:31:25.426Z,97354.88
2019-02-28T07:32:27.374Z,97348.71
2019-02-28T07:33:29.251Z,97348.63
2019-02-28T07:34:31.113Z,97339.89
2019-02-28T07:35:36.092Z,97339.97
2019-02-28T07:36:36.840Z,97334.80
2019-02-28T07:37:40.843Z,97330.19
2019-02-28T07:38:42.718Z,97334.19
2019-02-28T07:39:44.599Z,97328.85
2019-02-28T07:40:49.437Z,97311.02
2019-02-28T07:41:52.154Z,97305.98
2019-02-28T07:42:54.310Z,97285.16
2019-02-28T07:43:56.172Z,97283.83
2019-02-28T07:44:58.979Z,97287.33
2019-02-28T07:46:01.469Z,97281.25
2019-02-28T07:47:04.140Z,97279.41
2019-02-28T07:48:05.956Z,97275.85
2019-02-28T07:49:07.600Z,97273.78
2019-02-28T07:50:14.327Z,97269.78
2019-02-28T07:51:18.343Z,97281.03
2019-02-28T07:52:20.501Z,97263.63
2019-02-28T07:53:22.713Z,97263.13
2019-02-28T07:54:24.599Z,97259.13
2019-02-28T07:55:27.353Z,97265.50
2019-02-28T07:56:30.715Z,97261.04
2019-02-28T07:57:32.729Z,97262.91
2019-02-28T07:58:34.729Z,97263.41
2019-02-28T07:59:40.678Z,97262.08
2019-02-28T08:00:42.018Z,97263.99
2019-02-28T08:01:43.871Z,97257.12
2019-02-28T08:02:47.167Z,97255.28
2019-02-28T08:03:48.846Z,97258.52
2019-02-28T08:04:54.276Z,97253.48
2019-02-28T08:05:54.625Z,97256.77
2019-02-28T08:06:56.446Z,97260.22
2019-02-28T08:07:58.490Z,97262.67
2019-02-28T08:09:01.736Z,97259.72
2019-02-28T08:10:12.783Z,97262.97
2019-02-28T08:11:16.281Z,97261.63
2019-02-28T08:12:18.151Z,97265.42
2019-02-28T08:13:20.247Z,97263.87
2019-02-28T08:14:22.354Z,97258.00
2019-02-28T08:15:26.942Z,97256.45
2019-02-28T08:16:30.699Z,97252.74
2019-02-28T08:17:32.633Z,97253.03
2019-02-28T08:18:34.293Z,97256.81
2019-02-28T08:19:36.176Z,97246.98
2019-02-28T08:20:38.557Z,97249.93
2019-02-28T08:21:46.974Z,97252.89
2019-02-28T08:22:44.883Z,97243.63
2019-02-28T08:23:47.820Z,97239.12
2019-02-28T08:24:49.506Z,97254.30
2019-02-28T08:25:51.536Z,97235.77
2019-02-28T08:26:54.304Z,97240.75
2019-02-28T08:27:59.913Z,97243.77
2019-02-28T08:29:01.622Z,97244.96
2019-02-28T08:30:16.339Z,97238.52
2019-02-28T08:31:18.374Z,97232.53
2019-02-28T08:32:20.220Z,97216.20
2019-02-28T08:33:22.221Z,97224.38
2019-02-28T08:34:24.996Z,97236.89
2019-02-28T08:35:27.047Z,97217.55
2019-02-28T08:36:28.772Z,97227.63
2019-02-28T08:37:30.532Z,97216.38
2019-02-28T08:38:34.315Z,97226.97
2019-02-28T08:39:36.129Z,97229.03
2019-02-28T08:40:39.215Z,97220.74
2019-02-28T08:41:41.291Z,97209.14
2019-02-28T08:42:44.674Z,97213.79
2019-02-28T08:43:47.936Z,97210.52
2019-02-28T08:44:50.556Z,97207.55
2019-02-28T08:45:52.371Z,97196.60
2019-02-28T08:46:54.224Z,97196.85
2019-02-28T08:47:56.970Z,97190.23
2019-02-28T08:48:59.069Z,97196.82
2019-02-28T08:50:01.351Z,97179.30
2019-02-28T08:51:03.833Z,97180.70
2019-02-28T08:52:06.644Z,97186.58
2019-02-28T08:53:08.891Z,97180.09
2019-02-28T08:54:10.897Z,97182.44
2019-02-28T08:55:14.580Z,97185.22
2019-02-28T08:56:16.677Z,97183.16
2019-02-28T08:57:18.702Z,97187.00
2019-02-28T08:58:20.697Z,97190.27
2019-02-28T08:59:22.962Z,97188.86
2019-02-28T09:00:31.358Z,97172.88
2019-02-28T09:01:30.950Z,97174.08
2019-02-28T09:02:33.051Z,97169.32
2019-02-28T09:03:36.534Z,97166.15
2019-02-28T09:04:41.487Z,97198.40
2019-02-28T09:05:43.718Z,97176.39
2019-02-28T09:06:45.990Z,97172.78
2019-02-28T09:07:51.292Z,97164.39
2019-02-28T09:08:51.991Z,97183.92
2019-02-28T09:09:53.962Z,97168.41
2019-02-28T09:10:56.143Z,97173.48
2019-02-28T09:11:58.907Z,97176.56
2019-02-28T09:13:00.690Z,97172.61
2019-02-28T09:14:04.002Z,97177.14
2019-02-28T09:15:10.010Z,97178.95
2019-02-28T09:16:12.039Z,97182.60
2019-02-28T09:17:15.554Z,97173.78
2019-02-28T09:18:17.994Z,97174.41
2019-02-28T09:19:19.670Z,97171.73
2019-02-28T09:20:21.618Z,97173.41
2019-02-28T09:21:24.823Z,97177.30
2019-02-28T09:22:27.488Z,97168.20
2019-02-28T09:23:30.180Z,97163.09
2019-02-28T09:24:32.180Z,97161.57
2019-02-28T09:25:34.574Z,97173.34
2019-02-28T09:26:36.544Z,97160.53
2019-02-28T09:27:38.888Z,97148.18
2019-02-28T09:28:44.384Z,97149.01
2019-02-28T09:29:46.417Z,97145.10
2019-02-28T09:30:57.174Z,97151.52
2019-02-28T09:31:59.327Z,97151.02
2019-02-28T09:33:01.391Z,97139.91
2019-02-28T09:34:03.391Z,97138.88
2019-02-28T09:35:11.942Z,97142.30
2019-02-28T09:36:10.377Z,97127.98
2019-02-28T09:37:12.007Z,97125.28
2019-02-28T09:38:13.951Z,97117.81
2019-02-28T09:39:16.402Z,97114.27
2019-02-28T09:40:19.993Z,97105.36
2019-02-28T09:41:22.084Z,97089.21
2019-02-28T09:42:24.034Z,97121.39
2019-02-28T09:43:26.084Z,97104.59
2019-02-28T09:44:31.435Z,97096.84
2019-02-28T09:45:33.242Z,97111.95
2019-02-28T09:46:35.144Z,97091.69
2019-02-28T09:47:37.017Z,97104.30
2019-02-28T09:48:39.181Z,97102.92
2019-02-28T09:49:40.917Z,97103.56
2019-02-28T09:50:42.987Z,97101.09
2019-02-28T09:51:46.085Z,97102.88
2019-02-28T09:52:48.217Z,97099.30
2019-02-28T09:53:50.894Z,97106.45
2019-02-28T09:54:52.795Z,97100.08
2019-02-28T09:55:54.681Z,97101.22
2019-02-28T09:56:56.666Z,97092.35
2019-02-28T09:57:58.614Z,97108.78
2019-02-28T09:59:03.116Z,97104.24
2019-02-28T10:00:18.940Z,97101.41
2019-02-28T10:01:21.285Z,97095.30
2019-02-28T10:02:24.822Z,97093.44
2019-02-28T10:03:26.608Z,97104.95
2019-02-28T10:04:30.473Z,97104.75
2019-02-28T10:05:32.430Z,97109.64
2019-02-28T10:06:34.628Z,97110.67
2019-02-28T10:07:36.587Z,97115.72
2019-02-28T10:08:38.864Z,97104.67
2019-02-28T10:09:44.270Z,97102.02
2019-02-28T10:10:46.423Z,97109.14
2019-02-28T10:11:48.348Z,97094.95
2019-02-28T10:12:50.280Z,97107.63
2019-02-28T10:13:53.098Z,97124.77
2019-02-28T10:14:55.962Z,97117.61
2019-02-28T10:15:57.684Z,97110.14
2019-02-28T10:17:00.120Z,97115.29
2019-02-28T10:18:04.240Z,97119.77
2019-02-28T10:19:07.161Z,97120.30
2019-02-28T10:20:20.004Z,97117.20
2019-02-28T10:21:22.263Z,97120.76
2019-02-28T10:22:23.931Z,97116.38
2019-02-28T10:23:25.941Z,97116.12
2019-02-28T10:24:28.356Z,97105.20
2019-02-28T10:25:30.651Z,97110.02
2019-02-28T10:26:32.538Z,97094.92
2019-02-28T10:27:34.283Z,97096.13
2019-02-28T10:28:36.395Z,97111.14
2019-02-28T10:29:41.800Z,97104.91
2019-02-28T10:30:42.200Z,97104.68
2019-02-28T10:31:47.309Z,97104.28
2019-02-28T10:32:49.831Z,97097.41
2019-02-28T10:33:52.544Z,97115.05
2019-02-28T10:34:55.077Z,97095.14
2019-02-28T10:35:57.159Z,97095.16
2019-02-28T10:36:59.045Z,97109.55
2019-02-28T10:38:01.584Z,97109.44
2019-02-28T10:39:05.834Z,97101.38
2019-02-28T10:40:24.966Z,97100.06
2019-02-28T10:41:27.978Z,97086.49
2019-02-28T10:42:30.968Z,97097.73
2019-02-28T10:43:32.910Z,97099.60
2019-02-28T10:44:34.859Z,97088.16
2019-02-28T10:45:40.897Z,97088.69
2019-02-28T10:46:40.945Z,97080.59
2019-02-28T10:47:42.994Z,97090.52
2019-02-28T10:48:50.833Z,97100.09
2019-02-28T10:49:49.900Z,97095.22
2019-02-28T10:50:52.990Z,97106.44
2019-02-28T10:51:55.091Z,97094.20
2019-02-28T10:52:57.176Z,97093.38
2019-02-28T10:53:59.146Z,97100.09
2019-02-28T10:55:01.100Z,97103.98
2019-02-28T10:56:03.509Z,97113.16
2019-02-28T10:57:07.061Z,97092.84
2019-02-28T10:58:09.128Z,97082.91
2019-02-28T10:59:11.080Z,97097.11
2019-02-28T11:00:24.870Z,97101.30
2019-02-28T11:01:26.904Z,97095.16
2019-02-28T11:02:29.080Z,97091.91
2019-02-28T11:03:32.421Z,97097.95
2019-02-28T11:04:35.352Z,97080.70
2019-02-28T11:05:40.169Z,97083.55
2019-02-28T11:06:42.056Z,97089.89
2019-02-28T11:07:46.117Z,97098.91
2019-02-28T11:08:48.285Z,97074.50
2019-02-28T11:09:55.510Z,97097.27
2019-02-28T11:10:56.716Z,97074.00
2019-02-28T11:11:59.642Z,97067.70
2019-02-28T11:13:02.240Z,97078.30
2019-02-28T11:14:05.028Z,97088.33
2019-02-28T11:15:10.437Z,97077.77
2019-02-28T11:16:13.781Z,97049.27
2019-02-28T11:17:15.842Z,97077.82
2019-02-28T11:18:17.826Z,97058.34
2019-02-28T11:19:19.747Z,97089.95
2019-02-28T11:20:22.549Z,97069.55
2019-02-28T11:21:26.173Z,97086.88
2019-02-28T11:22:28.331Z,97081.87
2019-02-28T11:23:30.397Z,97088.09
2019-02-28T11:24:33.387Z,97090.75
2019-02-28T11:25:35.702Z,97077.91
2019-02-28T11:26:37.923Z,97081.77
2019-02-28T11:27:40.773Z,97056.49
2019-02-28T11:28:42.952Z,97096.83
2019-02-28T11:29:44.945Z,97098.50
2019-02-28T11:30:47.214Z,97090.25
2019-02-28T11:31:50.586Z,97098.47
2019-02-28T11:32:53.485Z,97097.15
2019-02-28T11:33:55.335Z,97095.55
2019-02-28T11:34:57.556Z,97090.77
2019-02-28T11:36:00.124Z,97089.84
2019-02-28T11:37:05.455Z,97097.47
2019-02-28T11:38:08.632Z,97093.50
2019-02-28T11:39:16.161Z,97079.33
2019-02-28T11:40:21.252Z,97079.13
2019-02-28T11:41:23.522Z,97087.80
2019-02-28T11:42:28.997Z,97079.42
2019-02-28T11:43:37.396Z,97081.87
2019-02-28T11:44:38.228Z,97063.22
2019-02-28T11:45:44.089Z,97060.84
2019-02-28T11:46:46.296Z,97070.17
2019-02-28T11:47:50.650Z,97065.47
2019-02-28T11:48:54.142Z,97080.46
2019-02-28T11:49:56.265Z,97056.77
2019-02-28T11:50:58.223Z,97052.09
2019-02-28T11:51:59.948Z,97071.98
2019-02-28T11:53:05.785Z,97078.41
2019-02-28T11:54:05.952Z,97080.33
2019-02-28T11:55:12.969Z,97060.55
2019-02-28T11:56:15.479Z,97061.97
2019-02-28T11:57:17.284Z,97087.27
2019-02-28T11:58:22.489Z,97071.45
2019-02-28T11:59:26.056Z,97069.59
2019-02-28T12:00:37.532Z,97074.23
2019-02-28T12:01:42.477Z,97072.90
2019-02-28T12:02:43.466Z,97054.74
2019-02-28T12:03:45.586Z,97064.33
2019-02-28T12:04:47.556Z,97063.33
2019-02-28T12:05:50.717Z,97069.23
2019-02-28T12:06:53.512Z,97067.50
2019-02-28T12:07:55.853Z,97081.08
2019-02-28T12:08:58.913Z,97074.03
2019-02-28T12:10:00.596Z,97081.79
2019-02-28T12:11:04.915Z,97079.94
2019-02-28T12:12:07.402Z,97063.62
2019-02-28T12:13:10.623Z,97077.20
2019-02-28T12:14:12.765Z,97074.74
2019-02-28T12:15:33.031Z,97063.23
2019-02-28T12:16:35.298Z,97059.84
2019-02-28T12:17:37.451Z,97065.05